createdAt,value
2023-01-26T17:40:42.778Z,3.50
2023-01-26T17:43:09.456Z,3.60
2023-01-26T17:45:36.110Z,3.60
2023-01-26T17:48:02.678Z,3.60
2023-01-26T17:50:29.263Z,3.70
2023-01-26T17:52:56.011Z,3.70
2023-01-26T17:55:22.649Z,3.80
2023-01-26T17:57:49.282Z,3.80
2023-01-26T18:00:16.506Z,3.90
2023-01-26T18:02:43.143Z,3.90
2023-01-26T18:05:10.471Z,4.00
2023-01-26T18:07:37.242Z,4.00
2023-01-26T18:10:04.879Z,4.00
2023-01-26T18:12:31.882Z,4.00
2023-01-26T18:14:58.596Z,4.00
2023-01-26T18:17:25.888Z,4.00
2023-01-26T18:19:52.530Z,4.00
2023-01-26T18:22:19.671Z,4.00
2023-01-26T18:24:48.231Z,4.00
2023-01-26T18:27:14.900Z,4.00
2023-01-26T18:29:41.540Z,4.00
2023-01-26T18:32:08.274Z,4.00
2023-01-26T18:34:34.999Z,4.00
2023-01-26T18:37:01.610Z,4.00
2023-01-26T18:39:28.923Z,4.00
2023-01-26T18:41:55.517Z,4.00
2023-01-26T18:44:22.585Z,4.10
2023-01-26T18:46:49.324Z,4.20
2023-01-26T18:49:15.971Z,4.30
2023-01-26T18:51:48.109Z,4.30
2023-01-26T18:54:15.338Z,4.40
2023-01-26T18:56:42.140Z,4.40
2023-01-26T18:59:10.829Z,4.50
2023-01-26T19:01:37.535Z,4.50
2023-01-26T19:04:06.721Z,4.50
2023-01-26T19:06:35.134Z,4.50
2023-01-26T19:09:05.795Z,4.50
2023-01-26T19:11:36.816Z,4.50
2023-01-26T19:14:11.652Z,4.50
2023-01-26T19:16:38.484Z,4.30
2023-01-26T19:19:05.213Z,4.20
2023-01-26T19:21:33.728Z,4.20
2023-01-26T19:24:05.575Z,4.20
2023-01-26T19:26:32.438Z,4.10
2023-01-26T19:28:59.324Z,4.10
2023-01-26T19:31:27.016Z,4.20
2023-01-26T19:33:54.785Z,4.30
2023-01-26T19:36:21.606Z,4.20
2023-01-26T19:38:48.212Z,4.20
2023-01-26T19:41:14.813Z,4.10
2023-01-26T19:43:41.853Z,4.10
2023-01-26T19:46:09.327Z,4.10
2023-01-26T19:48:36.069Z,4.10
2023-01-26T19:51:22.563Z,4.10
2023-01-26T19:53:50.342Z,4.10
2023-01-26T19:56:18.840Z,4.30
2023-01-26T19:58:52.223Z,4.40
2023-01-26T20:01:19.189Z,4.40
2023-01-26T20:03:49.533Z,4.40
2023-01-26T20:06:16.779Z,4.40
2023-01-26T20:08:43.401Z,4.30
2023-01-26T20:11:10.477Z,4.30
2023-01-26T20:13:37.043Z,4.20
2023-01-26T20:16:03.961Z,4.20
2023-01-26T20:18:30.629Z,4.30
2023-01-26T20:20:59.542Z,4.40
2023-01-26T20:23:27.820Z,4.50
2023-01-26T20:26:02.209Z,4.60
2023-01-26T20:28:28.892Z,4.60
2023-01-26T20:30:59.155Z,4.60
2023-01-26T20:33:25.858Z,4.60
2023-01-26T20:35:52.354Z,4.60
2023-01-26T20:38:18.913Z,4.60
2023-01-26T20:40:45.559Z,4.60
2023-01-26T20:43:12.111Z,4.60
2023-01-26T20:45:41.791Z,4.60
2023-01-26T20:48:08.545Z,4.60
2023-01-26T20:50:40.639Z,4.60
2023-01-26T20:53:08.260Z,4.60
2023-01-26T20:55:35.531Z,4.70
2023-01-26T20:58:02.074Z,4.70
2023-01-26T21:00:28.702Z,4.60
2023-01-26T21:02:55.408Z,4.60
2023-01-26T21:05:21.976Z,4.60
2023-01-26T21:07:48.621Z,4.70
2023-01-26T21:10:15.529Z,4.70
2023-01-26T21:12:42.073Z,4.70
2023-01-26T21:15:08.759Z,4.70
2023-01-26T21:17:35.324Z,4.70
2023-01-26T21:20:01.838Z,4.60
2023-01-26T21:22:28.355Z,4.50
2023-01-26T21:24:54.980Z,4.50
2023-01-26T21:27:27.695Z,4.50
2023-01-26T21:29:54.254Z,4.60
2023-01-26T21:32:20.852Z,4.50
2023-01-26T21:34:47.430Z,4.50
2023-01-26T21:37:13.970Z,4.50
2023-01-26T21:39:40.556Z,4.50
2023-01-26T21:42:07.161Z,4.50
2023-01-26T21:44:53.673Z,4.40
2023-01-26T21:47:20.251Z,4.40
2023-01-26T21:49:47.638Z,4.40
2023-01-26T21:52:33.019Z,4.40
2023-01-26T21:54:59.548Z,4.40
2023-01-26T21:57:47.631Z,4.40
2023-01-26T22:00:14.456Z,4.40
2023-01-26T22:02:41.413Z,4.40
2023-01-26T22:05:08.749Z,4.30
2023-01-26T22:07:35.317Z,4.30
2023-01-26T22:10:02.280Z,4.20
2023-01-26T22:12:28.823Z,4.20
2023-01-26T22:14:55.427Z,4.20
2023-01-26T22:17:22.020Z,4.10
2023-01-26T22:19:48.708Z,4.10
2023-01-26T22:22:15.302Z,4.00
2023-01-26T22:24:41.807Z,4.00
2023-01-26T22:27:08.365Z,4.00
2023-01-26T22:29:34.991Z,4.00
2023-01-26T22:32:02.596Z,4.00
2023-01-26T22:34:29.241Z,4.00
2023-01-26T22:36:55.756Z,3.90
2023-01-26T22:39:22.286Z,3.90
2023-01-26T22:41:48.828Z,3.90
2023-01-26T22:44:15.369Z,3.90
2023-01-26T22:46:41.867Z,3.80
2023-01-26T22:49:09.794Z,3.80
2023-01-26T22:51:37.343Z,3.80
2023-01-26T22:54:05.024Z,3.80
2023-01-26T22:56:31.647Z,3.80
2023-01-26T22:59:00.481Z,3.80
2023-01-26T23:01:31.450Z,3.70
2023-01-26T23:03:58.529Z,3.70
2023-01-26T23:06:25.577Z,3.70
2023-01-26T23:08:52.504Z,3.60
2023-01-26T23:11:22.354Z,3.60
2023-01-26T23:13:50.794Z,3.60
2023-01-26T23:16:18.549Z,3.50
2023-01-26T23:18:45.742Z,3.50
2023-01-26T23:21:12.916Z,3.40
2023-01-26T23:23:40.470Z,3.40
2023-01-26T23:26:08.079Z,3.40
2023-01-26T23:28:40.718Z,3.40
2023-01-26T23:31:08.571Z,3.50
2023-01-26T23:33:36.431Z,3.50
2023-01-26T23:36:04.126Z,3.60
2023-01-26T23:38:31.562Z,3.60
2023-01-26T23:41:00.340Z,3.70
2023-01-26T23:43:27.321Z,3.70
2023-01-26T23:45:56.626Z,3.80
2023-01-26T23:48:24.792Z,3.80
2023-01-26T23:51:02.951Z,3.90
2023-01-26T23:53:30.711Z,3.90
2023-01-26T23:55:59.938Z,4.00
2023-01-26T23:58:26.578Z,4.00
